Time;durP1;ratioP1;P1;durP2;ratioP2;P2;SDS_P1;SDS_P2;PMS_P1;PMS_P2;Temp;Humidity;BMP_temperature;BMP_pressure;BME280_temperature;BME280_humidity;BME280_pressure;Samples;Min_cycle;Max_cycle;Signal;HPM_P1;HPM_P2
2022/02/15 00:02:09;;;;;;;10.37;2.63;;;;;;;;;;5052533;28;20285;-81
2022/02/15 00:04:38;;;;;;;14.30;2.40;;;;;;;;;;5052876;28;20297;-81
2022/02/15 00:07:05;;;;;;;8.60;2.20;;;;;;;;;;5052645;28;20506;-81
2022/02/15 00:09:32;;;;;;;7.87;2.30;;;;;;;;;;5052385;28;20194;-81
2022/02/15 00:11:59;;;;;;;12.90;2.70;;;;;;;;;;5050547;28;20233;-80
2022/02/15 00:14:27;;;;;;;8.93;2.60;;;;;;;;;;5051577;28;20233;-81
2022/02/15 00:16:55;;;;;;;15.07;2.70;;;;;;;;;;5049552;28;20210;-81
2022/02/15 00:19:24;;;;;;;12.00;3.00;;;;;;;;;;5065868;28;20209;-81
2022/02/15 00:21:55;;;;;;;11.10;3.43;;;;;;;;;;5051652;28;20202;-80
2022/02/15 00:24:23;;;;;;;8.20;2.63;;;;;;;;;;5046535;28;20249;-80
2022/02/15 00:26:50;;;;;;;9.43;2.90;;;;;;;;;;5050836;28;20276;-80
2022/02/15 00:29:18;;;;;;;8.23;2.83;;;;;;;;;;5050291;28;20251;-81
2022/02/15 00:31:45;;;;;;;11.57;2.77;;;;;;;;;;5048091;28;20247;-81
2022/02/15 00:34:12;;;;;;;6.80;2.60;;;;;;;;;;5051317;28;20237;-80
2022/02/15 00:36:39;;;;;;;9.53;2.83;;;;;;;;;;5052795;28;20281;-80
2022/02/15 00:39:09;;;;;;;9.30;2.60;;;;;;;;;;5053794;28;20290;-80
2022/02/15 00:41:36;;;;;;;8.87;2.17;;;;;;;;;;5050503;28;20210;-80
2022/02/15 00:44:03;;;;;;;11.13;2.57;;;;;;;;;;5050568;28;20265;-80
2022/02/15 00:46:31;;;;;;;12.00;3.00;;;;;;;;;;5049246;28;20224;-79
2022/02/15 00:48:58;;;;;;;9.13;2.70;;;;;;;;;;5051391;28;20228;-80
2022/02/15 00:51:25;;;;;;;8.63;2.10;;;;;;;;;;5048806;28;20196;-79
2022/02/15 00:53:53;;;;;;;11.77;1.93;;;;;;;;;;5049817;28;20249;-80
2022/02/15 00:56:22;;;;;;;9.67;1.83;;;;;;;;;;5047106;28;20294;-80
2022/02/15 00:58:49;;;;;;;8.40;1.70;;;;;;;;;;5050468;28;20241;-80
2022/02/15 01:01:16;;;;;;;8.73;2.40;;;;;;;;;;5050330;28;20284;-80
2022/02/15 01:03:43;;;;;;;10.07;2.23;;;;;;;;;;5050909;28;20283;-80
2022/02/15 01:06:10;;;;;;;8.97;1.80;;;;;;;;;;5048358;28;20200;-80
2022/02/15 01:08:39;;;;;;;6.97;1.83;;;;;;;;;;5050571;28;20259;-80
2022/02/15 01:11:06;;;;;;;10.67;2.07;;;;;;;;;;5048349;28;20205;-80
2022/02/15 01:13:35;;;;;;;9.00;2.17;;;;;;;;;;5050465;28;20236;-80
2022/02/15 01:16:02;;;;;;;10.17;2.30;;;;;;;;;;5049489;28;20300;-80
2022/02/15 01:18:30;;;;;;;9.67;2.20;;;;;;;;;;5050211;28;20286;-80
2022/02/15 01:20:57;;;;;;;10.03;2.27;;;;;;;;;;5050341;28;20229;-80
2022/02/15 01:23:24;;;;;;;14.43;2.43;;;;;;;;;;5049455;28;20206;-80
2022/02/15 01:25:52;;;;;;;7.40;1.90;;;;;;;;;;5049022;28;20710;-80
2022/02/15 01:28:19;;;;;;;10.37;2.53;;;;;;;;;;5049167;28;20402;-80
2022/02/15 01:30:48;;;;;;;7.50;1.80;;;;;;;;;;5050942;28;20253;-80
2022/02/15 01:33:15;;;;;;;12.27;2.60;;;;;;;;;;5050119;28;20685;-80
2022/02/15 01:35:42;;;;;;;10.60;2.10;;;;;;;;;;5060681;28;20303;-80
2022/02/15 01:38:09;;;;;;;9.87;2.50;;;;;;;;;;5055926;28;20284;-80
2022/02/15 01:40:37;;;;;;;10.60;2.60;;;;;;;;;;5050015;28;20204;-80
2022/02/15 01:43:04;;;;;;;11.30;2.90;;;;;;;;;;5050637;28;20266;-80
2022/02/15 01:45:31;;;;;;;9.30;3.20;;;;;;;;;;5049941;28;20267;-80
2022/02/15 01:48:00;;;;;;;10.13;3.10;;;;;;;;;;5049800;28;20656;-80
2022/02/15 01:50:27;;;;;;;11.30;3.13;;;;;;;;;;5050551;28;20231;-80
2022/02/15 01:52:54;;;;;;;11.83;3.33;;;;;;;;;;5050500;28;20283;-80
2022/02/15 01:55:22;;;;;;;13.27;3.00;;;;;;;;;;5050496;28;20287;-80
2022/02/15 01:57:49;;;;;;;13.73;3.40;;;;;;;;;;5050587;28;20223;-80
2022/02/15 02:00:18;;;;;;;11.83;3.33;;;;;;;;;;5050789;28;20298;-80
2022/02/15 02:02:46;;;;;;;12.90;3.30;;;;;;;;;;5050370;28;20250;-80
2022/02/15 02:08:00;;;;;;;16.10;2.80;;;;;;;;;;5049842;28;20237;-80
2022/02/15 02:10:27;;;;;;;12.37;3.20;;;;;;;;;;5049574;28;20257;-80
2022/02/15 02:12:54;;;;;;;13.43;2.90;;;;;;;;;;5050275;28;20286;-80
2022/02/15 02:15:24;;;;;;;13.20;3.10;;;;;;;;;;5049571;28;20291;-80
2022/02/15 02:17:52;;;;;;;12.23;2.43;;;;;;;;;;5049818;28;20192;-80
2022/02/15 02:20:21;;;;;;;12.43;2.57;;;;;;;;;;5049759;28;20200;-80
2022/02/15 02:22:50;;;;;;;13.77;2.70;;;;;;;;;;5050530;28;20230;-80
2022/02/15 02:25:18;;;;;;;14.23;2.63;;;;;;;;;;5049954;28;20290;-80
2022/02/15 02:27:46;;;;;;;11.63;2.77;;;;;;;;;;5049162;28;20240;-80
2022/02/15 02:30:13;;;;;;;12.47;2.97;;;;;;;;;;5049530;28;20231;-80
2022/02/15 02:32:41;;;;;;;11.03;2.33;;;;;;;;;;5050094;28;20284;-80
2022/02/15 02:35:09;;;;;;;11.37;2.60;;;;;;;;;;5050511;28;20261;-80
2022/02/15 02:37:37;;;;;;;12.43;3.00;;;;;;;;;;5049445;28;20192;-80
2022/02/15 02:40:07;;;;;;;13.40;2.90;;;;;;;;;;5049639;28;20207;-80
2022/02/15 02:42:35;;;;;;;14.17;2.80;;;;;;;;;;5049470;28;20226;-80
2022/02/15 02:45:04;;;;;;;14.50;3.07;;;;;;;;;;5050000;28;20695;-79
2022/02/15 02:47:31;;;;;;;10.40;2.73;;;;;;;;;;5050315;28;20258;-80
2022/02/15 02:49:58;;;;;;;5.40;2.20;;;;;;;;;;5049594;28;20746;-80
2022/02/15 02:52:26;;;;;;;13.17;2.50;;;;;;;;;;5051639;28;20230;-80
2022/02/15 02:54:53;;;;;;;10.70;2.30;;;;;;;;;;5053370;28;20199;-80
2022/02/15 02:57:22;;;;;;;12.27;2.47;;;;;;;;;;5052839;28;20241;-80
2022/02/15 02:59:50;;;;;;;9.13;2.60;;;;;;;;;;5053261;28;20231;-80
2022/02/15 03:02:17;;;;;;;9.97;2.30;;;;;;;;;;5053255;28;20240;-80
2022/02/15 03:04:45;;;;;;;12.57;2.23;;;;;;;;;;5052877;28;20294;-80
2022/02/15 03:07:12;;;;;;;13.87;2.60;;;;;;;;;;5053197;28;20285;-80
2022/02/15 03:09:39;;;;;;;10.37;2.23;;;;;;;;;;5053847;28;20579;-79
2022/02/15 03:12:07;;;;;;;11.70;2.87;;;;;;;;;;5053083;28;20235;-80
2022/02/15 03:14:35;;;;;;;16.03;2.73;;;;;;;;;;5053583;28;20230;-80
2022/02/15 03:17:03;;;;;;;11.97;2.77;;;;;;;;;;5053094;28;20254;-80
2022/02/15 03:19:30;;;;;;;13.57;2.40;;;;;;;;;;5052926;28;20209;-80
2022/02/15 03:21:58;;;;;;;15.23;2.33;;;;;;;;;;5052440;28;20231;-80
2022/02/15 03:24:25;;;;;;;8.27;2.17;;;;;;;;;;5052319;28;20243;-80
2022/02/15 03:26:52;;;;;;;8.57;2.03;;;;;;;;;;5051579;28;20206;-80
2022/02/15 03:29:19;;;;;;;9.20;2.03;;;;;;;;;;5051842;28;20260;-80
2022/02/15 03:31:48;;;;;;;7.90;2.13;;;;;;;;;;5051503;28;20196;-79
2022/02/15 03:34:15;;;;;;;16.43;2.23;;;;;;;;;;5052104;28;20205;-80
2022/02/15 03:36:42;;;;;;;7.17;1.70;;;;;;;;;;5048497;28;20221;-80
2022/02/15 03:39:10;;;;;;;13.57;2.07;;;;;;;;;;5052298;28;20693;-80
2022/02/15 03:44:22;;;;;;;8.80;2.13;;;;;;;;;;5051830;28;20233;-80
2022/02/15 03:46:51;;;;;;;16.27;2.20;;;;;;;;;;5052845;28;20287;-80
2022/02/15 03:49:19;;;;;;;11.93;2.27;;;;;;;;;;5051704;28;20314;-80
2022/02/15 03:51:47;;;;;;;10.90;2.10;;;;;;;;;;5053168;28;20229;-80
2022/02/15 03:54:14;;;;;;;7.83;2.20;;;;;;;;;;5052940;28;20229;-80
2022/02/15 03:56:41;;;;;;;6.07;2.00;;;;;;;;;;5052151;28;20746;-80
2022/02/15 03:59:09;;;;;;;16.73;2.30;;;;;;;;;;5052809;28;20237;-80
2022/02/15 04:01:37;;;;;;;9.07;1.83;;;;;;;;;;5052866;28;20234;-80
2022/02/15 04:04:05;;;;;;;10.33;2.07;;;;;;;;;;5052019;28;20291;-80
2022/02/15 04:06:33;;;;;;;9.63;2.17;;;;;;;;;;5048903;28;20235;-80
2022/02/15 04:09:00;;;;;;;12.80;2.23;;;;;;;;;;5051024;28;20226;-80
2022/02/15 04:11:28;;;;;;;15.40;2.43;;;;;;;;;;5051330;28;20284;-80
2022/02/15 04:13:58;;;;;;;9.43;2.00;;;;;;;;;;5051876;28;20210;-80
2022/02/15 04:16:25;;;;;;;9.13;1.83;;;;;;;;;;5052194;28;20273;-79
2022/02/15 04:18:53;;;;;;;11.40;2.00;;;;;;;;;;5052017;28;20198;-79
2022/02/15 04:21:23;;;;;;;14.90;2.80;;;;;;;;;;5052312;28;20286;-80
2022/02/15 04:23:50;;;;;;;11.73;2.47;;;;;;;;;;5051707;28;20207;-80
2022/02/15 04:26:18;;;;;;;11.07;2.53;;;;;;;;;;5051480;28;20235;-79
2022/02/15 04:28:45;;;;;;;10.53;2.87;;;;;;;;;;5053048;28;20661;-79
2022/02/15 04:31:13;;;;;;;11.77;3.23;;;;;;;;;;5052441;28;20292;-80
2022/02/15 04:33:40;;;;;;;11.27;3.90;;;;;;;;;;5052306;28;20239;-79
2022/02/15 04:36:08;;;;;;;12.33;4.20;;;;;;;;;;5051889;28;20244;-79
2022/02/15 04:38:37;;;;;;;17.63;4.37;;;;;;;;;;5051289;28;20206;-79
2022/02/15 04:41:04;;;;;;;11.83;4.30;;;;;;;;;;5051965;28;20193;-79
2022/02/15 04:43:32;;;;;;;13.27;4.87;;;;;;;;;;5050784;28;20246;-79
2022/02/15 04:45:59;;;;;;;16.10;5.07;;;;;;;;;;5051469;28;20318;-79
2022/02/15 04:48:26;;;;;;;13.23;5.20;;;;;;;;;;5051677;28;20629;-79
2022/02/15 04:50:53;;;;;;;15.60;5.10;;;;;;;;;;5051666;28;20233;-79
2022/02/15 04:53:20;;;;;;;13.57;5.27;;;;;;;;;;5052006;28;20288;-79
2022/02/15 04:55:49;;;;;;;12.73;4.60;;;;;;;;;;5050236;28;20196;-79
2022/02/15 04:58:16;;;;;;;13.20;3.30;;;;;;;;;;5051867;28;20277;-79
2022/02/15 05:00:45;;;;;;;12.60;3.53;;;;;;;;;;5051308;28;20223;-79
2022/02/15 05:03:12;;;;;;;12.90;3.20;;;;;;;;;;5052025;28;20545;-79
2022/02/15 05:05:40;;;;;;;13.27;3.07;;;;;;;;;;5050634;28;20275;-80
2022/02/15 05:08:07;;;;;;;11.13;2.47;;;;;;;;;;5049884;28;20313;-79
2022/02/15 05:10:34;;;;;;;14.57;2.70;;;;;;;;;;5050248;28;20207;-79
2022/02/15 05:13:06;;;;;;;9.73;2.30;;;;;;;;;;5050849;28;20241;-79
2022/02/15 05:15:34;;;;;;;10.63;2.37;;;;;;;;;;5050918;28;20208;-79
2022/02/15 05:18:01;;;;;;;12.00;2.40;;;;;;;;;;5051143;28;20226;-79
2022/02/15 05:20:28;;;;;;;12.97;2.57;;;;;;;;;;5050554;28;20622;-79
2022/02/15 05:22:55;;;;;;;17.93;3.40;;;;;;;;;;5050960;28;20231;-79
2022/02/15 05:25:23;;;;;;;18.47;3.87;;;;;;;;;;5050971;28;20342;-79
2022/02/15 05:27:51;;;;;;;22.27;4.80;;;;;;;;;;5050760;28;20233;-79
2022/02/15 05:30:20;;;;;;;32.33;6.60;;;;;;;;;;5051030;28;20213;-79
2022/02/15 05:32:48;;;;;;;28.53;7.30;;;;;;;;;;5050821;28;20242;-79
2022/02/15 05:35:15;;;;;;;25.97;7.13;;;;;;;;;;5049448;28;21534;-79
2022/02/15 05:37:42;;;;;;;24.80;6.43;;;;;;;;;;5051019;28;20196;-80
2022/02/15 05:40:10;;;;;;;25.67;5.37;;;;;;;;;;5050689;28;20293;-79
2022/02/15 05:42:37;;;;;;;18.17;4.57;;;;;;;;;;5041356;28;20252;-80
2022/02/15 05:45:04;;;;;;;21.50;6.20;;;;;;;;;;5050521;28;20269;-80
2022/02/15 05:47:33;;;;;;;22.47;5.40;;;;;;;;;;5051045;28;20235;-79
2022/02/15 05:52:45;;;;;;;16.67;4.00;;;;;;;;;;5050693;28;20576;-79
2022/02/15 05:55:12;;;;;;;13.40;3.50;;;;;;;;;;5051801;28;20234;-79
2022/02/15 05:57:40;;;;;;;16.43;4.00;;;;;;;;;;5050857;28;20249;-81
2022/02/15 06:00:08;;;;;;;17.57;4.30;;;;;;;;;;5050337;28;20236;-80
2022/02/15 06:02:37;;;;;;;15.23;3.50;;;;;;;;;;5047685;28;20762;-81
2022/02/15 06:05:04;;;;;;;11.73;2.90;;;;;;;;;;5049914;28;20230;-80
2022/02/15 06:07:31;;;;;;;13.47;2.57;;;;;;;;;;5048859;28;20234;-82
2022/02/15 06:09:59;;;;;;;14.13;2.97;;;;;;;;;;5050338;28;20258;-82
2022/02/15 06:12:26;;;;;;;18.87;2.57;;;;;;;;;;5050644;28;20238;-82
2022/02/15 06:14:53;;;;;;;16.33;3.13;;;;;;;;;;5050365;28;20701;-82
2022/02/15 06:17:20;;;;;;;13.10;2.80;;;;;;;;;;5050062;28;20260;-82
2022/02/15 06:19:49;;;;;;;15.93;2.60;;;;;;;;;;5050160;28;20226;-81
2022/02/15 06:22:16;;;;;;;12.63;2.60;;;;;;;;;;5049581;28;20196;-82
2022/02/15 06:24:43;;;;;;;17.43;3.00;;;;;;;;;;5049963;28;20325;-82
2022/02/15 06:27:11;;;;;;;16.17;2.77;;;;;;;;;;5052406;28;20206;-80
2022/02/15 06:29:38;;;;;;;11.13;2.60;;;;;;;;;;5054117;28;20317;-82
2022/02/15 06:32:05;;;;;;;12.50;2.70;;;;;;;;;;5053368;28;20230;-81
2022/02/15 06:34:33;;;;;;;12.33;2.23;;;;;;;;;;5053548;28;20233;-82
2022/02/15 06:37:01;;;;;;;11.43;2.50;;;;;;;;;;5053235;28;20210;-81
2022/02/15 06:39:28;;;;;;;13.90;3.20;;;;;;;;;;5052635;28;20321;-81
2022/02/15 06:41:56;;;;;;;10.40;2.93;;;;;;;;;;5046815;28;20238;-81
2022/02/15 06:44:23;;;;;;;11.97;2.77;;;;;;;;;;5047971;28;20284;-82
2022/02/15 06:46:50;;;;;;;13.43;2.73;;;;;;;;;;5052903;28;20229;-82
2022/02/15 06:49:17;;;;;;;11.57;3.20;;;;;;;;;;5053226;28;20273;-82
2022/02/15 06:51:44;;;;;;;14.67;2.90;;;;;;;;;;5049428;28;20307;-81
2022/02/15 06:54:13;;;;;;;12.80;3.00;;;;;;;;;;5048250;28;20286;-82
2022/02/15 06:56:41;;;;;;;12.57;3.20;;;;;;;;;;5052787;28;20207;-82
2022/02/15 06:59:09;;;;;;;15.70;3.40;;;;;;;;;;5053422;28;20203;-82
2022/02/15 07:01:39;;;;;;;14.23;3.93;;;;;;;;;;5053342;28;20205;-82
2022/02/15 07:04:06;;;;;;;18.47;3.13;;;;;;;;;;5052806;28;20203;-82
2022/02/15 07:06:33;;;;;;;14.87;3.57;;;;;;;;;;5053223;28;20196;-82
2022/02/15 07:09:01;;;;;;;12.80;3.20;;;;;;;;;;5053238;28;20706;-82
2022/02/15 07:11:29;;;;;;;14.20;3.10;;;;;;;;;;5053608;28;20200;-82
2022/02/15 07:13:57;;;;;;;12.30;3.27;;;;;;;;;;5055178;28;20280;-82
2022/02/15 07:16:24;;;;;;;11.10;2.67;;;;;;;;;;5053863;28;20250;-82
2022/02/15 07:18:51;;;;;;;14.07;2.80;;;;;;;;;;5054691;28;20663;-81
2022/02/15 07:21:18;;;;;;;16.23;3.10;;;;;;;;;;5053426;28;20226;-81
2022/02/15 07:23:46;;;;;;;18.93;3.17;;;;;;;;;;5055265;28;20620;-81
2022/02/15 07:26:13;;;;;;;18.37;4.07;;;;;;;;;;5055799;28;20249;-81
2022/02/15 07:28:42;;;;;;;17.70;3.77;;;;;;;;;;5054913;28;20294;-80
2022/02/15 07:31:09;;;;;;;17.03;3.67;;;;;;;;;;5054130;28;20238;-81
2022/02/15 07:33:36;;;;;;;16.20;3.67;;;;;;;;;;5053191;28;20211;-81
2022/02/15 07:36:04;;;;;;;15.10;2.90;;;;;;;;;;5053154;28;20349;-82
2022/02/15 07:38:31;;;;;;;16.80;3.60;;;;;;;;;;5052241;28;20232;-81
2022/02/15 07:40:58;;;;;;;16.70;3.47;;;;;;;;;;5053906;28;20679;-81
2022/02/15 07:43:26;;;;;;;15.10;3.30;;;;;;;;;;5052802;28;20226;-81
2022/02/15 07:45:54;;;;;;;16.33;3.40;;;;;;;;;;5051651;28;20323;-81
2022/02/15 07:48:22;;;;;;;15.67;3.90;;;;;;;;;;5052584;28;20683;-81
2022/02/15 07:50:49;;;;;;;15.77;3.63;;;;;;;;;;5051313;28;20641;-81
2022/02/15 07:53:17;;;;;;;12.87;3.77;;;;;;;;;;5050993;28;20203;-82
2022/02/15 07:55:44;;;;;;;16.43;3.40;;;;;;;;;;5053251;28;20206;-81
2022/02/15 07:58:11;;;;;;;16.10;3.97;;;;;;;;;;5055580;28;20212;-81
2022/02/15 08:00:39;;;;;;;18.73;3.57;;;;;;;;;;5054275;28;20280;-80
2022/02/15 08:03:08;;;;;;;14.27;3.73;;;;;;;;;;5072091;28;20239;-80
2022/02/15 08:05:40;;;;;;;13.77;3.70;;;;;;;;;;5054216;28;20914;-80
2022/02/15 08:08:07;;;;;;;16.37;3.60;;;;;;;;;;5053802;28;20299;-81
2022/02/15 08:10:34;;;;;;;18.23;3.93;;;;;;;;;;5053128;28;20247;-81
2022/02/15 08:13:01;;;;;;;17.53;4.20;;;;;;;;;;5053442;28;20252;-80
2022/02/15 08:15:30;;;;;;;14.77;3.90;;;;;;;;;;5051365;28;20668;-81
2022/02/15 08:17:58;;;;;;;19.30;3.67;;;;;;;;;;5050478;28;20267;-80
2022/02/15 08:20:27;;;;;;;16.30;3.23;;;;;;;;;;5053932;28;20278;-82
2022/02/15 08:22:54;;;;;;;17.83;3.33;;;;;;;;;;5050498;28;21802;-82
2022/02/15 08:25:22;;;;;;;17.83;3.40;;;;;;;;;;5051858;28;20631;-82
2022/02/15 08:27:49;;;;;;;12.43;2.80;;;;;;;;;;5051428;28;20211;-82
2022/02/15 08:30:17;;;;;;;16.73;3.20;;;;;;;;;;5050782;28;20291;-82
2022/02/15 08:32:44;;;;;;;15.30;3.00;;;;;;;;;;5051406;28;20308;-82
2022/02/15 08:35:14;;;;;;;15.07;2.83;;;;;;;;;;5051352;28;20197;-80
2022/02/15 08:37:43;;;;;;;15.00;2.40;;;;;;;;;;5052048;28;20202;-80
2022/02/15 08:40:12;;;;;;;11.10;2.53;;;;;;;;;;5051541;28;20196;-82
2022/02/15 08:42:40;;;;;;;15.17;3.13;;;;;;;;;;5050496;28;20229;-82
2022/02/15 08:45:08;;;;;;;13.27;2.87;;;;;;;;;;5051606;28;20310;-82
2022/02/15 08:47:35;;;;;;;17.17;2.67;;;;;;;;;;5051070;28;20207;-81
2022/02/15 08:50:03;;;;;;;16.17;2.40;;;;;;;;;;5050296;28;20251;-82
2022/02/15 08:52:30;;;;;;;12.43;2.53;;;;;;;;;;5051152;28;20241;-82
2022/02/15 08:54:59;;;;;;;19.30;2.70;;;;;;;;;;5052469;28;20281;-82
2022/02/15 08:57:26;;;;;;;16.93;2.90;;;;;;;;;;5050431;28;20671;-82
2022/02/15 08:59:54;;;;;;;13.57;3.13;;;;;;;;;;5048677;28;20290;-82
2022/02/15 09:02:21;;;;;;;14.00;2.33;;;;;;;;;;5049863;28;20206;-87
2022/02/15 09:04:48;;;;;;;15.97;2.87;;;;;;;;;;5050873;28;20272;-82
2022/02/15 09:07:15;;;;;;;12.30;2.67;;;;;;;;;;5050004;28;20698;-80
2022/02/15 09:09:43;;;;;;;17.60;2.83;;;;;;;;;;5050076;28;20313;-82
2022/02/15 09:12:11;;;;;;;15.57;2.67;;;;;;;;;;5049966;28;20253;-82
2022/02/15 09:14:39;;;;;;;16.90;3.00;;;;;;;;;;5050886;28;20205;-82
2022/02/15 09:17:06;;;;;;;18.57;2.57;;;;;;;;;;5050334;28;20223;-81
2022/02/15 09:19:34;;;;;;;16.87;3.23;;;;;;;;;;5050266;28;20283;-81
2022/02/15 09:22:03;;;;;;;10.33;2.43;;;;;;;;;;5050685;28;21665;-81
2022/02/15 09:24:31;;;;;;;11.43;2.97;;;;;;;;;;5050216;28;20199;-81
2022/02/15 09:26:58;;;;;;;13.53;3.10;;;;;;;;;;5050243;28;20634;-81
2022/02/15 09:29:26;;;;;;;15.37;2.87;;;;;;;;;;5049621;28;20230;-81
2022/02/15 09:31:54;;;;;;;20.47;2.80;;;;;;;;;;5051038;28;20246;-81
2022/02/15 09:34:23;;;;;;;14.27;2.90;;;;;;;;;;5049272;28;20619;-81
2022/02/15 09:36:50;;;;;;;17.60;2.53;;;;;;;;;;5044999;28;20200;-82
2022/02/15 09:39:20;;;;;;;14.43;2.70;;;;;;;;;;5049225;28;20282;-81
2022/02/15 09:41:48;;;;;;;14.70;2.60;;;;;;;;;;5048419;28;20199;-81
2022/02/15 09:44:15;;;;;;;11.73;2.50;;;;;;;;;;5051534;28;20267;-81
2022/02/15 09:46:45;;;;;;;12.00;2.40;;;;;;;;;;5048735;28;20232;-81
2022/02/15 09:51:55;;;;;;;11.00;1.93;;;;;;;;;;5048931;28;20609;-81
2022/02/15 09:54:22;;;;;;;13.10;2.77;;;;;;;;;;5051038;28;20231;-81
2022/02/15 09:56:50;;;;;;;14.67;2.30;;;;;;;;;;5050389;28;20278;-81
2022/02/15 09:59:18;;;;;;;17.30;2.37;;;;;;;;;;5050568;28;20196;-82
2022/02/15 10:01:47;;;;;;;14.47;3.10;;;;;;;;;;5048732;28;20278;-82
2022/02/15 10:04:14;;;;;;;14.03;2.67;;;;;;;;;;5047432;28;20207;-82
2022/02/15 10:06:42;;;;;;;13.80;2.70;;;;;;;;;;5053664;28;21008;-82
2022/02/15 10:09:09;;;;;;;13.30;2.90;;;;;;;;;;5053842;28;20205;-82
2022/02/15 10:11:37;;;;;;;17.23;2.57;;;;;;;;;;5053806;28;20292;-82
2022/02/15 10:14:04;;;;;;;10.47;2.80;;;;;;;;;;5053215;28;20616;-82
2022/02/15 10:16:32;;;;;;;14.33;2.40;;;;;;;;;;5051127;28;20238;-81
2022/02/15 10:19:01;;;;;;;10.63;3.03;;;;;;;;;;5053604;28;20227;-81
2022/02/15 10:21:29;;;;;;;11.33;3.03;;;;;;;;;;5052779;28;20227;-81
2022/02/15 10:23:58;;;;;;;18.77;2.70;;;;;;;;;;5052987;28;20286;-81
2022/02/15 10:26:28;;;;;;;12.57;3.20;;;;;;;;;;5053229;28;20297;-81
2022/02/15 10:28:55;;;;;;;10.33;2.93;;;;;;;;;;5052280;28;20208;-82
2022/02/15 10:31:23;;;;;;;17.43;3.00;;;;;;;;;;5053862;28;20309;-81
2022/02/15 10:33:50;;;;;;;13.53;2.70;;;;;;;;;;5047178;28;20233;-81
2022/02/15 10:36:19;;;;;;;10.70;2.50;;;;;;;;;;5051041;28;20202;-81
2022/02/15 10:38:50;;;;;;;10.97;2.63;;;;;;;;;;5054113;28;20204;-80
2022/02/15 10:41:18;;;;;;;12.57;3.03;;;;;;;;;;5050863;28;20206;-82
2022/02/15 10:43:46;;;;;;;12.37;2.87;;;;;;;;;;5053571;28;20222;-81
2022/02/15 10:46:14;;;;;;;11.30;2.43;;;;;;;;;;5051281;28;20236;-81
2022/02/15 10:48:42;;;;;;;11.53;2.40;;;;;;;;;;5050925;28;20658;-81
2022/02/15 10:51:10;;;;;;;13.07;3.10;;;;;;;;;;5051377;28;20234;-81
2022/02/15 10:53:38;;;;;;;14.10;2.63;;;;;;;;;;5048487;28;20803;-82
2022/02/15 10:56:06;;;;;;;9.17;2.77;;;;;;;;;;5048624;28;20786;-82
2022/02/15 10:58:34;;;;;;;16.67;2.27;;;;;;;;;;5051371;28;20200;-82
2022/02/15 11:01:02;;;;;;;11.13;2.63;;;;;;;;;;5051622;28;20235;-82
2022/02/15 11:03:31;;;;;;;13.53;2.37;;;;;;;;;;5052405;28;20325;-81
2022/02/15 11:05:59;;;;;;;13.73;2.37;;;;;;;;;;5053153;28;20204;-81
2022/02/15 11:08:27;;;;;;;12.43;2.50;;;;;;;;;;5053698;28;20200;-82
2022/02/15 11:11:01;;;;;;;9.37;2.30;;;;;;;;;;5051714;28;20224;-81
2022/02/15 11:13:28;;;;;;;13.83;2.33;;;;;;;;;;5051383;28;20203;-81
2022/02/15 11:15:56;;;;;;;8.63;2.37;;;;;;;;;;5046804;28;20626;-81
2022/02/15 11:18:31;;;;;;;10.93;2.17;;;;;;;;;;5047001;28;20282;-82
2022/02/15 11:20:59;;;;;;;14.37;2.73;;;;;;;;;;5052673;28;20282;-81
2022/02/15 11:23:28;;;;;;;9.33;1.80;;;;;;;;;;5053846;28;20736;-82
2022/02/15 11:26:11;;;;;;;8.23;1.80;;;;;;;;;;5053512;28;20227;-82
2022/02/15 11:28:48;;;;;;;9.17;1.90;;;;;;;;;;5050828;28;20196;-82
2022/02/15 11:31:26;;;;;;;10.80;1.97;;;;;;;;;;5052789;28;20219;-83
2022/02/15 11:33:54;;;;;;;15.67;2.60;;;;;;;;;;5053162;28;20586;-82
2022/02/15 11:36:23;;;;;;;13.90;2.80;;;;;;;;;;5053228;28;20286;-82
2022/02/15 11:38:55;;;;;;;12.10;2.27;;;;;;;;;;5053168;28;20211;-83
2022/02/15 11:41:24;;;;;;;8.97;2.20;;;;;;;;;;5045841;28;20200;-83
2022/02/15 11:43:55;;;;;;;12.90;2.40;;;;;;;;;;5052894;28;20260;-83
2022/02/15 11:46:29;;;;;;;15.03;2.50;;;;;;;;;;5052582;28;20200;-82
2022/02/15 11:48:57;;;;;;;13.63;2.73;;;;;;;;;;5051053;28;20199;-82
2022/02/15 11:51:26;;;;;;;9.27;2.13;;;;;;;;;;5053092;28;20269;-82
2022/02/15 11:53:55;;;;;;;15.80;2.43;;;;;;;;;;5052153;28;20188;-83
2022/02/15 11:56:24;;;;;;;11.20;2.07;;;;;;;;;;5052409;28;20722;-83
2022/02/15 11:58:52;;;;;;;14.50;2.73;;;;;;;;;;5052120;28;20706;-84
2022/02/15 12:01:23;;;;;;;13.90;2.10;;;;;;;;;;5051798;28;20283;-85
2022/02/15 12:03:51;;;;;;;14.33;2.73;;;;;;;;;;5052306;28;20200;-85
2022/02/15 12:06:18;;;;;;;9.43;2.37;;;;;;;;;;5052659;28;20200;-84
2022/02/15 12:08:54;;;;;;;13.23;2.83;;;;;;;;;;5052015;28;20224;-84
2022/02/15 12:11:32;;;;;;;12.73;2.33;;;;;;;;;;5051442;28;20306;-84
2022/02/15 12:13:59;;;;;;;12.37;2.33;;;;;;;;;;5051483;28;20199;-82
2022/02/15 12:16:26;;;;;;;14.93;2.60;;;;;;;;;;5044403;28;20207;-83
2022/02/15 12:18:54;;;;;;;15.27;2.37;;;;;;;;;;5052590;28;20685;-84
2022/02/15 12:21:21;;;;;;;13.90;2.40;;;;;;;;;;5051997;28;20287;-83
2022/02/15 12:23:48;;;;;;;10.90;2.47;;;;;;;;;;5050982;28;20663;-82
2022/02/15 12:26:15;;;;;;;14.60;2.20;;;;;;;;;;5052082;28;20204;-81
2022/02/15 12:28:46;;;;;;;10.67;2.07;;;;;;;;;;5050572;28;20309;-84
2022/02/15 12:31:14;;;;;;;10.73;2.20;;;;;;;;;;5050602;28;20702;-83
2022/02/15 12:33:41;;;;;;;14.13;2.70;;;;;;;;;;5051037;28;20279;-84
2022/02/15 12:36:08;;;;;;;10.70;2.40;;;;;;;;;;5050804;28;20283;-83
2022/02/15 12:38:39;;;;;;;15.80;2.63;;;;;;;;;;5044002;28;20224;-84
2022/02/15 12:41:14;;;;;;;10.97;2.70;;;;;;;;;;5050651;28;20200;-82
2022/02/15 12:43:41;;;;;;;14.23;2.60;;;;;;;;;;5049000;28;20664;-82
2022/02/15 12:46:10;;;;;;;8.87;1.80;;;;;;;;;;5048206;28;20258;-83
2022/02/15 12:48:37;;;;;;;14.07;2.90;;;;;;;;;;5049590;28;20279;-83
2022/02/15 12:51:04;;;;;;;8.77;2.47;;;;;;;;;;5045389;28;20224;-83
2022/02/15 12:53:32;;;;;;;11.07;2.37;;;;;;;;;;5043530;28;20219;-83
2022/02/15 12:55:59;;;;;;;8.70;2.33;;;;;;;;;;5048459;28;20207;-82
2022/02/15 12:58:29;;;;;;;10.37;2.77;;;;;;;;;;5051553;28;20228;-85
2022/02/15 13:01:00;;;;;;;11.10;2.83;;;;;;;;;;5051112;28;20325;-83
2022/02/15 13:03:33;;;;;;;11.87;2.63;;;;;;;;;;5048096;28;20204;-83
2022/02/15 13:06:07;;;;;;;10.60;2.73;;;;;;;;;;5047037;28;20295;-83
2022/02/15 13:08:43;;;;;;;13.27;2.80;;;;;;;;;;5048346;28;20743;-82
2022/02/15 13:11:11;;;;;;;10.00;2.63;;;;;;;;;;5050552;28;20246;-83
2022/02/15 13:13:38;;;;;;;13.13;2.60;;;;;;;;;;5050319;28;20200;-83
2022/02/15 13:16:06;;;;;;;12.77;2.63;;;;;;;;;;5049301;28;20283;-83
2022/02/15 13:18:43;;;;;;;10.60;2.30;;;;;;;;;;5048393;28;20223;-83
2022/02/15 13:21:14;;;;;;;11.20;2.30;;;;;;;;;;5050191;28;20226;-80
2022/02/15 13:23:54;;;;;;;10.83;2.63;;;;;;;;;;5048865;28;20278;-82
2022/02/15 13:26:29;;;;;;;11.80;2.60;;;;;;;;;;5050495;28;20222;-82
2022/02/15 13:28:56;;;;;;;8.37;2.87;;;;;;;;;;5055153;28;20219;-80
2022/02/15 13:31:23;;;;;;;10.77;2.70;;;;;;;;;;5048209;28;20270;-82
2022/02/15 13:33:52;;;;;;;14.37;2.70;;;;;;;;;;5047749;28;20208;-82
2022/02/15 13:36:30;;;;;;;11.77;3.10;;;;;;;;;;5050615;28;20196;-82
2022/02/15 13:38:57;;;;;;;8.17;2.20;;;;;;;;;;5049554;28;20199;-81
2022/02/15 13:41:25;;;;;;;8.57;2.80;;;;;;;;;;5042964;28;20196;-83
2022/02/15 13:43:57;;;;;;;10.80;2.27;;;;;;;;;;5047272;28;20650;-82
2022/02/15 13:46:27;;;;;;;10.43;2.30;;;;;;;;;;5048815;28;20204;-82
2022/02/15 13:48:57;;;;;;;12.27;2.63;;;;;;;;;;5044688;28;20204;-81
2022/02/15 13:51:27;;;;;;;16.33;2.80;;;;;;;;;;5049910;28;20211;-81
2022/02/15 13:53:56;;;;;;;13.43;2.33;;;;;;;;;;5050534;28;20199;-81
2022/02/15 13:56:23;;;;;;;9.43;2.30;;;;;;;;;;5049448;28;20290;-81
2022/02/15 13:58:50;;;;;;;11.07;2.90;;;;;;;;;;5049715;28;20234;-81
2022/02/15 14:01:18;;;;;;;9.77;2.47;;;;;;;;;;5049973;28;20691;-81
2022/02/15 14:03:50;;;;;;;12.87;3.00;;;;;;;;;;5049533;28;20219;-81
2022/02/15 14:06:18;;;;;;;9.97;2.70;;;;;;;;;;5050050;28;20208;-80
2022/02/15 14:08:46;;;;;;;12.30;2.60;;;;;;;;;;5045401;28;20200;-80
2022/02/15 14:11:13;;;;;;;19.53;3.73;;;;;;;;;;5050179;28;20314;-80
2022/02/15 14:13:41;;;;;;;11.97;3.03;;;;;;;;;;5048489;28;20290;-80
2022/02/15 14:16:08;;;;;;;12.80;2.77;;;;;;;;;;5049074;28;20283;-79
2022/02/15 14:18:37;;;;;;;9.63;2.90;;;;;;;;;;5047087;28;20227;-80
2022/02/15 14:21:04;;;;;;;12.50;2.80;;;;;;;;;;5048836;28;20223;-80
2022/02/15 14:23:33;;;;;;;10.60;2.63;;;;;;;;;;5049613;28;20633;-80
2022/02/15 14:26:01;;;;;;;11.00;2.17;;;;;;;;;;5048348;28;20242;-80
2022/02/15 14:28:30;;;;;;;12.43;2.40;;;;;;;;;;5048105;28;20739;-80
2022/02/15 14:30:57;;;;;;;15.40;3.80;;;;;;;;;;5047900;28;20265;-80
2022/02/15 14:33:25;;;;;;;14.50;3.47;;;;;;;;;;5047499;28;20205;-79
2022/02/15 14:35:53;;;;;;;15.53;4.17;;;;;;;;;;5048102;28;20326;-79
2022/02/15 14:38:34;;;;;;;16.20;4.83;;;;;;;;;;5047754;28;20203;-80
2022/02/15 14:41:02;;;;;;;14.57;5.20;;;;;;;;;;5043509;28;20200;-79
2022/02/15 14:43:32;;;;;;;19.80;5.60;;;;;;;;;;5047968;28;20779;-80
2022/02/15 14:45:59;;;;;;;15.33;6.00;;;;;;;;;;5046913;28;20711;-80
2022/02/15 14:48:27;;;;;;;16.50;5.43;;;;;;;;;;5042383;28;20211;-80